createdAt,value
2018-08-19T03:14:34.218Z,1009.22
2018-08-19T03:15:34.174Z,1009.23
2018-08-19T03:16:34.177Z,1009.25
2018-08-19T03:17:34.188Z,1009.24
2018-08-19T03:18:34.182Z,1009.24
2018-08-19T03:19:34.168Z,1009.22
2018-08-19T03:20:34.169Z,1009.19
2018-08-19T03:21:34.163Z,1009.23
2018-08-19T03:22:34.173Z,1009.23
2018-08-19T03:23:34.182Z,1009.21
2018-08-19T03:24:34.185Z,1009.24
2018-08-19T03:25:34.182Z,1009.28
2018-08-19T03:26:34.189Z,1009.27
2018-08-19T03:27:34.177Z,1009.27
2018-08-19T03:28:34.173Z,1009.28
2018-08-19T03:29:34.186Z,1009.27
2018-08-19T03:30:34.186Z,1009.25
2018-08-19T03:31:34.184Z,1009.27
2018-08-19T03:32:34.234Z,1009.28
2018-08-19T03:33:34.219Z,1009.27
2018-08-19T03:34:34.233Z,1009.29
2018-08-19T03:35:34.194Z,1009.27
2018-08-19T03:36:34.193Z,1009.27
2018-08-19T03:37:34.209Z,1009.25
2018-08-19T03:38:34.223Z,1009.28
2018-08-19T03:39:34.204Z,1009.26
2018-08-19T03:40:34.207Z,1009.26
2018-08-19T03:41:34.229Z,1009.30
2018-08-19T03:42:34.217Z,1009.28
2018-08-19T03:43:34.234Z,1009.28
2018-08-19T03:44:34.224Z,1009.27
2018-08-19T03:45:34.226Z,1009.26
2018-08-19T03:46:34.237Z,1009.27
2018-08-19T03:47:34.254Z,1009.29
2018-08-19T03:48:34.250Z,1009.31
2018-08-19T03:49:34.262Z,1009.34
2018-08-19T03:50:34.245Z,1009.34
2018-08-19T03:51:34.245Z,1009.35
2018-08-19T03:52:34.241Z,1009.34
2018-08-19T03:53:34.246Z,1009.31
2018-08-19T03:54:34.255Z,1009.35
2018-08-19T03:55:34.261Z,1009.30
2018-08-19T03:56:34.255Z,1009.32
2018-08-19T03:57:34.284Z,1009.28
2018-08-19T03:58:34.250Z,1009.29
2018-08-19T03:59:34.256Z,1009.30
2018-08-19T04:00:34.267Z,1009.31
2018-08-19T04:01:34.265Z,1009.31
2018-08-19T04:02:34.275Z,1009.31
2018-08-19T04:03:34.270Z,1009.32
2018-08-19T04:04:34.274Z,1009.34
2018-08-19T04:05:34.273Z,1009.33
2018-08-19T04:06:34.288Z,1009.32
2018-08-19T04:07:34.288Z,1009.33
2018-08-19T04:08:34.283Z,1009.34
2018-08-19T04:09:34.284Z,1009.34
2018-08-19T04:10:34.283Z,1009.34
2018-08-19T04:11:34.314Z,1009.37
2018-08-19T04:12:34.297Z,1009.34
2018-08-19T04:13:34.323Z,1009.35
2018-08-19T04:14:34.298Z,1009.38
2018-08-19T04:15:34.303Z,1009.41
2018-08-19T04:16:34.303Z,1009.40
2018-08-19T04:17:34.336Z,1009.44
2018-08-19T04:18:34.315Z,1009.40
2018-08-19T04:19:34.313Z,1009.41
2018-08-19T04:20:34.333Z,1009.41
2018-08-19T04:21:34.334Z,1009.42
2018-08-19T04:22:34.344Z,1009.44
2018-08-19T04:23:34.382Z,1009.43
2018-08-19T04:24:34.343Z,1009.45
2018-08-19T04:25:34.333Z,1009.42
2018-08-19T04:26:34.338Z,1009.46
2018-08-19T04:27:34.365Z,1009.45
2018-08-19T04:28:34.338Z,1009.48
2018-08-19T04:29:34.344Z,1009.49
2018-08-19T04:30:34.354Z,1009.51
2018-08-19T04:31:34.358Z,1009.51
2018-08-19T04:32:34.351Z,1009.49
2018-08-19T04:33:34.346Z,1009.47
2018-08-19T04:34:34.363Z,1009.43
2018-08-19T04:35:34.354Z,1009.43
2018-08-19T04:36:34.366Z,1009.38
2018-08-19T04:37:34.375Z,1009.43
2018-08-19T04:38:34.371Z,1009.45
2018-08-19T04:39:34.373Z,1009.44
2018-08-19T04:40:34.399Z,1009.48
2018-08-19T04:41:34.387Z,1009.42
2018-08-19T04:42:34.401Z,1009.47
2018-08-19T04:43:34.395Z,1009.43
2018-08-19T04:44:34.394Z,1009.43
2018-08-19T04:45:34.414Z,1009.43
2018-08-19T04:46:34.417Z,1009.43
2018-08-19T04:47:34.391Z,1009.40
2018-08-19T04:48:34.400Z,1009.40
2018-08-19T04:49:34.417Z,1009.41
2018-08-19T04:50:34.400Z,1009.42
2018-08-19T04:51:34.403Z,1009.47
2018-08-19T04:52:34.398Z,1009.51
2018-08-19T04:53:34.432Z,1009.50
2018-08-19T04:54:34.429Z,1009.51
2018-08-19T04:55:34.431Z,1009.56
2018-08-19T04:56:34.436Z,1009.59
2018-08-19T04:57:34.421Z,1009.60
2018-08-19T04:58:34.434Z,1009.60
2018-08-19T04:59:34.428Z,1009.61
2018-08-19T05:00:34.439Z,1009.61
2018-08-19T05:01:34.444Z,1009.59
2018-08-19T05:02:34.470Z,1009.61
2018-08-19T05:03:34.495Z,1009.58
2018-08-19T05:04:34.448Z,1009.57
2018-08-19T05:05:34.444Z,1009.58
2018-08-19T05:06:34.445Z,1009.58
2018-08-19T05:07:34.460Z,1009.60
2018-08-19T05:08:34.455Z,1009.56
2018-08-19T05:09:34.471Z,1009.57
2018-08-19T05:10:34.482Z,1009.58
2018-08-19T05:11:34.466Z,1009.63
2018-08-19T05:12:34.479Z,1009.64
2018-08-19T05:13:34.482Z,1009.61
2018-08-19T05:14:34.465Z,1009.65
2018-08-19T05:15:34.531Z,1009.64
2018-08-19T05:16:34.480Z,1009.65
2018-08-19T05:17:34.492Z,1009.68
2018-08-19T05:18:34.484Z,1009.67
2018-08-19T05:19:34.484Z,1009.68
2018-08-19T05:20:34.490Z,1009.71
2018-08-19T05:21:34.490Z,1009.70
2018-08-19T05:22:34.507Z,1009.67
2018-08-19T05:23:34.499Z,1009.70
2018-08-19T05:24:34.507Z,1009.70
2018-08-19T05:25:34.508Z,1009.68
2018-08-19T05:26:34.531Z,1009.73
2018-08-19T05:27:34.538Z,1009.70
2018-08-19T05:28:34.538Z,1009.68
2018-08-19T05:29:34.521Z,1009.67
2018-08-19T05:30:34.544Z,1009.64
2018-08-19T05:31:34.614Z,1009.65
2018-08-19T05:32:34.536Z,1009.64
2018-08-19T05:33:34.525Z,1009.63
2018-08-19T05:34:34.532Z,1009.68
2018-08-19T05:35:34.527Z,1009.68
2018-08-19T05:36:34.546Z,1009.69
2018-08-19T05:37:34.567Z,1009.70
2018-08-19T05:38:34.539Z,1009.68
2018-08-19T05:39:34.537Z,1009.70
2018-08-19T05:40:34.547Z,1009.69
2018-08-19T05:41:34.554Z,1009.70
2018-08-19T05:42:34.704Z,1009.69
2018-08-19T05:43:34.565Z,1009.72
2018-08-19T05:44:34.558Z,1009.69
2018-08-19T05:45:34.634Z,1009.66
2018-08-19T05:46:34.591Z,1009.63
2018-08-19T05:47:34.609Z,1009.66
2018-08-19T05:48:34.584Z,1009.66
2018-08-19T05:49:34.588Z,1009.71
2018-08-19T05:50:34.589Z,1009.69
2018-08-19T05:51:34.582Z,1009.75
2018-08-19T05:52:34.583Z,1009.72
2018-08-19T05:53:34.595Z,1009.70
2018-08-19T05:54:34.611Z,1009.66
2018-08-19T05:55:34.670Z,1009.74
2018-08-19T05:56:34.609Z,1009.73
2018-08-19T05:57:34.597Z,1009.75
2018-08-19T05:58:34.618Z,1009.77
2018-08-19T05:59:34.615Z,1009.77
2018-08-19T06:00:34.639Z,1009.78
2018-08-19T06:01:34.620Z,1009.77
2018-08-19T06:02:34.641Z,1009.80
2018-08-19T06:03:34.656Z,1009.77
2018-08-19T06:04:34.653Z,1009.79
2018-08-19T06:05:34.639Z,1009.76
2018-08-19T06:06:34.634Z,1009.77
2018-08-19T06:07:34.689Z,1009.80
2018-08-19T06:08:34.640Z,1009.79
2018-08-19T06:09:34.668Z,1009.81
2018-08-19T06:10:34.675Z,1009.84
2018-08-19T06:11:34.955Z,1009.81
2018-08-19T06:12:34.696Z,1009.80
2018-08-19T06:13:34.668Z,1009.79
2018-08-19T06:14:34.671Z,1009.82
2018-08-19T06:15:34.675Z,1009.78
2018-08-19T06:16:34.674Z,1009.76
2018-08-19T06:17:34.680Z,1009.82
2018-08-19T06:18:34.686Z,1009.76
2018-08-19T06:19:34.683Z,1009.84
2018-08-19T06:20:34.691Z,1009.87
2018-08-19T06:21:34.697Z,1009.83
2018-08-19T06:22:34.700Z,1009.82
2018-08-19T06:23:34.709Z,1009.81
2018-08-19T06:24:34.755Z,1009.82
2018-08-19T06:25:34.711Z,1009.79
2018-08-19T06:26:34.735Z,1009.77
2018-08-19T06:27:34.749Z,1009.78
2018-08-19T06:28:34.726Z,1009.79
2018-08-19T06:29:34.736Z,1009.80
2018-08-19T06:30:34.739Z,1009.85
2018-08-19T06:31:34.747Z,1009.84
2018-08-19T06:32:34.751Z,1009.86
2018-08-19T06:33:34.751Z,1009.86
2018-08-19T06:34:34.879Z,1009.87
2018-08-19T06:35:34.769Z,1009.88
2018-08-19T06:36:34.781Z,1009.87
2018-08-19T06:37:34.786Z,1009.88
2018-08-19T06:38:34.792Z,1009.92
2018-08-19T06:39:34.783Z,1009.91
2018-08-19T06:40:34.791Z,1009.91
2018-08-19T06:41:34.795Z,1009.89
2018-08-19T06:42:34.801Z,1009.94
2018-08-19T06:43:34.836Z,1009.91
2018-08-19T06:44:34.817Z,1009.93
2018-08-19T06:45:34.825Z,1009.90
2018-08-19T06:46:34.824Z,1009.90
2018-08-19T06:47:34.861Z,1009.92
2018-08-19T06:48:34.827Z,1009.89
2018-08-19T06:49:34.829Z,1009.89
2018-08-19T06:50:34.837Z,1009.91
2018-08-19T06:51:34.850Z,1009.90
2018-08-19T06:52:34.853Z,1009.92
2018-08-19T06:53:34.862Z,1009.94
2018-08-19T06:54:34.869Z,1009.91
2018-08-19T06:55:34.876Z,1009.88
2018-08-19T06:56:34.870Z,1009.91
2018-08-19T06:57:34.877Z,1009.86
2018-08-19T06:58:34.875Z,1009.85
2018-08-19T06:59:34.895Z,1009.89
2018-08-19T07:00:34.897Z,1009.89
2018-08-19T07:01:34.904Z,1009.87
2018-08-19T07:02:34.911Z,1009.93
2018-08-19T07:03:34.998Z,1009.88
2018-08-19T07:04:34.912Z,1009.90
2018-08-19T07:05:34.919Z,1009.90
2018-08-19T07:06:34.922Z,1009.89
2018-08-19T07:07:34.956Z,1009.89
2018-08-19T07:08:34.944Z,1009.90
2018-08-19T07:09:34.956Z,1009.87
2018-08-19T07:10:34.958Z,1009.91
2018-08-19T07:11:34.944Z,1009.88
2018-08-19T07:12:35.011Z,1009.91
2018-08-19T07:13:34.959Z,1009.93
2018-08-19T07:14:34.977Z,1009.91
2018-08-19T07:15:35.058Z,1009.90
2018-08-19T07:16:34.971Z,1009.86
2018-08-19T07:17:35.107Z,1009.89
2018-08-19T07:18:35.026Z,1009.89
2018-08-19T07:19:34.988Z,1009.90
2018-08-19T07:20:35.000Z,1009.87
2018-08-19T07:21:35.041Z,1009.84
2018-08-19T07:22:35.008Z,1009.86
2018-08-19T07:23:35.018Z,1009.84
2018-08-19T07:24:35.019Z,1009.87
2018-08-19T07:25:35.031Z,1009.84
2018-08-19T07:26:35.031Z,1009.87
2018-08-19T07:27:35.041Z,1009.83
2018-08-19T07:28:35.036Z,1009.82
2018-08-19T07:29:35.054Z,1009.88
2018-08-19T07:30:35.052Z,1009.85
2018-08-19T07:31:35.061Z,1009.87
2018-08-19T07:32:35.064Z,1009.87
2018-08-19T07:33:35.068Z,1009.88
2018-08-19T07:34:35.081Z,1009.91
2018-08-19T07:35:35.093Z,1009.97
2018-08-19T07:36:35.089Z,1009.93
2018-08-19T07:37:35.084Z,1009.91
2018-08-19T07:38:35.104Z,1009.94
2018-08-19T07:39:35.120Z,1009.96
2018-08-19T07:40:35.113Z,1009.93
2018-08-19T07:41:35.118Z,1009.92
2018-08-19T07:42:35.114Z,1009.91
2018-08-19T07:43:35.116Z,1009.91
2018-08-19T07:44:35.124Z,1009.93
2018-08-19T07:45:35.129Z,1009.92
2018-08-19T07:46:35.147Z,1009.94
2018-08-19T07:47:35.153Z,1009.93
2018-08-19T07:48:35.146Z,1009.92
2018-08-19T07:49:35.166Z,1009.93
2018-08-19T07:50:35.161Z,1009.94
2018-08-19T07:51:35.180Z,1009.94
2018-08-19T07:52:35.164Z,1009.96
2018-08-19T07:53:35.173Z,1009.94
2018-08-19T07:54:35.180Z,1009.97
2018-08-19T07:55:35.189Z,1009.95
2018-08-19T07:56:35.208Z,1009.99
2018-08-19T07:57:35.200Z,1009.96
2018-08-19T07:58:35.202Z,1009.93
2018-08-19T07:59:35.222Z,1009.93
2018-08-19T08:00:35.209Z,1009.98
2018-08-19T08:01:35.240Z,1009.94
2018-08-19T08:02:35.227Z,1009.95
2018-08-19T08:03:35.228Z,1009.94
2018-08-19T08:04:35.233Z,1009.97
2018-08-19T08:05:35.246Z,1009.97
2018-08-19T08:06:35.246Z,1010.00
2018-08-19T08:07:35.248Z,1010.03
2018-08-19T08:08:35.254Z,1010.05
2018-08-19T08:09:35.276Z,1010.06
2018-08-19T08:10:35.294Z,1010.10
2018-08-19T08:11:35.268Z,1010.10
2018-08-19T08:12:35.281Z,1010.07
2018-08-19T08:13:35.283Z,1010.07
2018-08-19T08:14:35.312Z,1010.06
2018-08-19T08:15:35.316Z,1010.10
2018-08-19T08:16:35.321Z,1010.09
2018-08-19T08:17:35.333Z,1010.08
2018-08-19T08:18:35.329Z,1010.12
2018-08-19T08:19:35.321Z,1010.12
2018-08-19T08:20:35.328Z,1010.11
2018-08-19T08:21:35.459Z,1010.09
2018-08-19T08:22:35.338Z,1010.07
2018-08-19T08:23:35.333Z,1010.08
2018-08-19T08:24:35.343Z,1010.04
2018-08-19T08:25:35.352Z,1010.04
2018-08-19T08:26:35.352Z,1010.01
2018-08-19T08:27:35.370Z,1010.01
2018-08-19T08:28:35.361Z,1010.03
2018-08-19T08:29:35.367Z,1010.01
2018-08-19T08:30:35.372Z,1009.99
2018-08-19T08:31:35.405Z,1010.02
2018-08-19T08:32:35.398Z,1010.01
2018-08-19T08:33:35.396Z,1010.05
2018-08-19T08:34:35.400Z,1010.04
2018-08-19T08:35:35.426Z,1010.09
2018-08-19T08:36:35.408Z,1010.09
2018-08-19T08:37:35.421Z,1010.06
2018-08-19T08:38:35.422Z,1010.07
2018-08-19T08:39:35.431Z,1010.08
2018-08-19T08:40:35.466Z,1010.06
2018-08-19T08:41:35.448Z,1010.08
2018-08-19T08:42:35.465Z,1010.09
2018-08-19T08:43:35.450Z,1010.10
2018-08-19T08:44:35.487Z,1010.10
2018-08-19T08:45:35.466Z,1010.07
2018-08-19T08:46:35.471Z,1010.08
2018-08-19T08:47:35.587Z,1010.09
2018-08-19T08:48:35.483Z,1010.09
2018-08-19T08:49:35.510Z,1010.09
2018-08-19T08:50:35.493Z,1010.09
2018-08-19T08:51:35.507Z,1010.06
2018-08-19T08:52:35.510Z,1010.06
2018-08-19T08:53:35.517Z,1010.03
2018-08-19T08:54:35.518Z,1010.01
2018-08-19T08:55:35.548Z,1009.99
2018-08-19T08:56:35.539Z,1010.03
2018-08-19T08:57:35.557Z,1009.98
2018-08-19T08:58:35.543Z,1009.97
2018-08-19T08:59:35.547Z,1009.95
2018-08-19T09:00:35.552Z,1009.98
2018-08-19T09:01:35.561Z,1009.95
2018-08-19T09:02:35.565Z,1009.92
2018-08-19T09:03:35.572Z,1009.90
2018-08-19T09:04:35.578Z,1009.91
2018-08-19T09:05:35.581Z,1009.90
2018-08-19T09:06:35.589Z,1009.91
2018-08-19T09:07:35.625Z,1009.91
2018-08-19T09:08:35.608Z,1009.90
2018-08-19T09:09:35.619Z,1009.93
2018-08-19T09:10:35.612Z,1009.93
2018-08-19T09:11:35.624Z,1009.98
2018-08-19T09:12:35.619Z,1009.95
2018-08-19T09:13:35.628Z,1009.95
2018-08-19T09:14:35.642Z,1009.95
2018-08-19T09:15:35.643Z,1009.93
2018-08-19T09:16:35.662Z,1009.94
2018-08-19T09:17:35.670Z,1009.91
2018-08-19T09:18:35.677Z,1009.93
2018-08-19T09:19:35.699Z,1009.95
2018-08-19T09:20:35.679Z,1009.96
2018-08-19T09:21:35.708Z,1009.91
2018-08-19T09:22:35.688Z,1009.92
2018-08-19T09:23:35.737Z,1009.91
2018-08-19T09:24:35.742Z,1009.87
2018-08-19T09:25:35.702Z,1009.87
2018-08-19T09:26:35.739Z,1009.84
2018-08-19T09:27:35.732Z,1009.81
2018-08-19T09:28:35.720Z,1009.82
2018-08-19T09:29:35.741Z,1009.82
2018-08-19T09:30:35.765Z,1009.82
2018-08-19T09:31:35.745Z,1009.82
2018-08-19T09:32:35.782Z,1009.80
2018-08-19T09:33:35.757Z,1009.85
2018-08-19T09:34:35.763Z,1009.86
2018-08-19T09:35:35.767Z,1009.86
2018-08-19T09:36:35.781Z,1009.87
2018-08-19T09:37:35.781Z,1009.86
2018-08-19T09:38:35.784Z,1009.85
2018-08-19T09:39:35.817Z,1009.81
2018-08-19T09:40:35.817Z,1009.84
2018-08-19T09:41:35.819Z,1009.80
2018-08-19T09:42:35.813Z,1009.78
2018-08-19T09:43:35.831Z,1009.78
2018-08-19T09:44:35.828Z,1009.79
2018-08-19T09:45:35.842Z,1009.79
2018-08-19T09:46:35.842Z,1009.75
2018-08-19T09:47:35.867Z,1009.78
2018-08-19T09:48:35.857Z,1009.73
2018-08-19T09:49:35.865Z,1009.74
2018-08-19T09:50:35.863Z,1009.75
2018-08-19T09:51:35.896Z,1009.72
2018-08-19T09:52:35.882Z,1009.72
2018-08-19T09:53:35.905Z,1009.69
2018-08-19T09:54:35.936Z,1009.71
2018-08-19T09:55:36.691Z,1009.68
2018-08-19T09:56:35.933Z,1009.66
2018-08-19T09:57:35.939Z,1009.67
2018-08-19T09:58:35.911Z,1009.65
2018-08-19T09:59:35.944Z,1009.63
2018-08-19T10:00:35.941Z,1009.62
2018-08-19T10:01:36.064Z,1009.63
2018-08-19T10:02:35.946Z,1009.60
2018-08-19T10:03:35.953Z,1009.62
2018-08-19T10:04:35.958Z,1009.55
2018-08-19T10:05:35.980Z,1009.56
2018-08-19T10:06:35.968Z,1009.54
2018-08-19T10:07:36.051Z,1009.61
2018-08-19T10:08:35.989Z,1009.59
2018-08-19T10:09:36.022Z,1009.56
2018-08-19T10:10:36.503Z,1009.57
2018-08-19T10:11:36.000Z,1009.55
2018-08-19T10:12:36.005Z,1009.55
2018-08-19T10:13:36.060Z,1009.49
2018-08-19T10:14:36.018Z,1009.50
2018-08-19T10:15:36.090Z,1009.50
2018-08-19T10:16:36.038Z,1009.44
2018-08-19T10:17:36.075Z,1009.46
2018-08-19T10:18:36.042Z,1009.48
2018-08-19T10:19:36.070Z,1009.47
2018-08-19T10:20:36.056Z,1009.44
2018-08-19T10:21:36.089Z,1009.41
2018-08-19T10:22:36.080Z,1009.45
2018-08-19T10:23:36.083Z,1009.43
2018-08-19T10:24:36.080Z,1009.45
2018-08-19T10:25:36.154Z,1009.47
2018-08-19T10:26:36.257Z,1009.41
2018-08-19T10:27:36.103Z,1009.42
2018-08-19T10:28:36.103Z,1009.42
2018-08-19T10:29:36.115Z,1009.42
2018-08-19T10:30:36.121Z,1009.37
2018-08-19T10:31:36.127Z,1009.38
2018-08-19T10:32:36.144Z,1009.40
2018-08-19T10:33:36.139Z,1009.41
2018-08-19T10:34:36.163Z,1009.37
2018-08-19T10:35:36.175Z,1009.35
2018-08-19T10:36:36.157Z,1009.32
2018-08-19T10:37:36.165Z,1009.30
2018-08-19T10:38:36.171Z,1009.36
2018-08-19T10:39:36.195Z,1009.33
2018-08-19T10:40:36.208Z,1009.33
2018-08-19T10:41:36.192Z,1009.32
2018-08-19T10:42:36.282Z,1009.36
2018-08-19T10:43:36.237Z,1009.35
2018-08-19T10:44:36.222Z,1009.32
2018-08-19T10:45:36.222Z,1009.30
2018-08-19T10:46:36.263Z,1009.25
2018-08-19T10:47:36.261Z,1009.22
2018-08-19T10:48:36.248Z,1009.18
2018-08-19T10:49:36.254Z,1009.18
2018-08-19T10:50:36.338Z,1009.16
2018-08-19T10:51:44.903Z,1009.14
2018-08-19T10:53:30.968Z,1009.12
2018-08-19T10:54:30.974Z,1009.13
2018-08-19T10:55:30.972Z,1009.11
2018-08-19T10:56:30.989Z,1009.08
2018-08-19T10:57:30.992Z,1009.08
2018-08-19T10:58:31.038Z,1009.06
2018-08-19T10:59:30.996Z,1009.06
2018-08-19T11:00:31.004Z,1009.03
2018-08-19T11:01:31.013Z,1009.01
2018-08-19T11:02:31.013Z,1008.99
2018-08-19T11:03:31.021Z,1008.98
2018-08-19T11:04:31.032Z,1008.95
2018-08-19T11:05:31.050Z,1008.96
2018-08-19T11:06:31.094Z,1008.95
2018-08-19T11:07:31.043Z,1008.97
2018-08-19T11:08:31.047Z,1008.98
2018-08-19T11:09:31.054Z,1008.97
2018-08-19T11:10:31.071Z,1008.94
2018-08-19T11:11:31.109Z,1008.95
2018-08-19T11:12:31.075Z,1008.93
2018-08-19T11:13:31.125Z,1008.90
2018-08-19T11:14:31.088Z,1008.90
2018-08-19T11:15:31.101Z,1008.94
2018-08-19T11:16:31.102Z,1008.89
2018-08-19T11:17:31.109Z,1008.88
2018-08-19T11:18:31.121Z,1008.88
2018-08-19T11:19:31.119Z,1008.85
2018-08-19T11:20:31.133Z,1008.84
2018-08-19T11:21:31.165Z,1008.81
2018-08-19T11:22:31.150Z,1008.81
2018-08-19T11:23:31.149Z,1008.82
2018-08-19T11:24:31.163Z,1008.79
2018-08-19T11:25:31.164Z,1008.78
2018-08-19T11:26:31.177Z,1008.79
2018-08-19T11:27:31.201Z,1008.75
2018-08-19T11:28:31.185Z,1008.79
2018-08-19T11:29:31.191Z,1008.76
2018-08-19T11:30:31.199Z,1008.69
2018-08-19T11:31:31.292Z,1008.71
2018-08-19T11:32:31.209Z,1008.65
2018-08-19T11:33:31.217Z,1008.66
2018-08-19T11:34:31.227Z,1008.67
2018-08-19T11:35:31.232Z,1008.67
2018-08-19T11:36:31.240Z,1008.64
2018-08-19T11:37:31.245Z,1008.60
2018-08-19T11:38:31.326Z,1008.60
2018-08-19T11:39:31.256Z,1008.61
2018-08-19T11:40:31.263Z,1008.60
2018-08-19T11:41:31.277Z,1008.53
2018-08-19T11:42:31.279Z,1008.56
2018-08-19T11:43:31.298Z,1008.54
2018-08-19T11:44:31.294Z,1008.54
2018-08-19T11:45:31.301Z,1008.54
2018-08-19T11:46:31.303Z,1008.56
2018-08-19T11:47:31.311Z,1008.54
2018-08-19T11:48:31.334Z,1008.55
2018-08-19T11:49:31.334Z,1008.51
2018-08-19T11:50:31.365Z,1008.50
2018-08-19T11:51:31.371Z,1008.47
2018-08-19T11:52:31.344Z,1008.43
2018-08-19T11:53:31.351Z,1008.47
2018-08-19T11:54:31.364Z,1008.47
2018-08-19T11:55:31.374Z,1008.48
2018-08-19T11:56:31.371Z,1008.41
2018-08-19T11:57:31.380Z,1008.44
2018-08-19T11:58:31.395Z,1008.43
2018-08-19T11:59:31.395Z,1008.45
2018-08-19T12:00:31.404Z,1008.43
2018-08-19T12:01:31.446Z,1008.43
2018-08-19T12:02:31.440Z,1008.41
2018-08-19T12:03:31.423Z,1008.43
2018-08-19T12:04:31.436Z,1008.38
2018-08-19T12:05:31.437Z,1008.40
2018-08-19T12:06:31.446Z,1008.38
2018-08-19T12:07:31.447Z,1008.36
2018-08-19T12:08:31.450Z,1008.37
2018-08-19T12:09:31.515Z,1008.39
2018-08-19T12:10:31.477Z,1008.37
2018-08-19T12:11:31.514Z,1008.37
2018-08-19T12:12:31.484Z,1008.35
2018-08-19T12:13:31.489Z,1008.36
2018-08-19T12:14:31.502Z,1008.32
2018-08-19T12:15:31.496Z,1008.35
2018-08-19T12:16:31.513Z,1008.29
2018-08-19T12:17:31.514Z,1008.33
2018-08-19T12:18:31.523Z,1008.30
2018-08-19T12:19:31.531Z,1008.27
2018-08-19T12:20:31.540Z,1008.30
2018-08-19T12:21:31.544Z,1008.28
2018-08-19T12:22:31.547Z,1008.23
2018-08-19T12:23:31.554Z,1008.26
2018-08-19T12:24:31.562Z,1008.25
2018-08-19T12:25:31.608Z,1008.26
2018-08-19T12:26:31.592Z,1008.17
2018-08-19T12:27:31.724Z,1008.20
2018-08-19T12:28:31.596Z,1008.21
2018-08-19T12:29:31.607Z,1008.19
2018-08-19T12:30:31.612Z,1008.14
2018-08-19T12:31:31.613Z,1008.18
2018-08-19T12:32:31.615Z,1008.15
2018-08-19T12:33:31.627Z,1008.16
2018-08-19T12:34:31.636Z,1008.13
2018-08-19T12:35:31.644Z,1008.14
2018-08-19T12:36:31.645Z,1008.09
2018-08-19T12:37:31.814Z,1008.10
2018-08-19T12:38:31.883Z,1008.10
2018-08-19T12:39:31.727Z,1008.09
2018-08-19T12:40:31.689Z,1008.08
2018-08-19T12:41:31.687Z,1008.06
2018-08-19T12:42:31.689Z,1008.06
2018-08-19T12:43:31.783Z,1008.06
2018-08-19T12:44:31.707Z,1008.03
2018-08-19T12:45:31.709Z,1007.99
2018-08-19T12:46:31.723Z,1007.99
2018-08-19T12:47:31.726Z,1008.01
2018-08-19T12:48:31.735Z,1007.97
2018-08-19T12:49:31.741Z,1007.94
2018-08-19T12:50:31.746Z,1007.99
2018-08-19T12:51:31.837Z,1007.98
2018-08-19T12:52:31.758Z,1007.93
2018-08-19T12:53:31.840Z,1007.99
2018-08-19T12:54:31.778Z,1007.98
2018-08-19T12:55:31.777Z,1007.97
2018-08-19T12:56:31.797Z,1007.98
2018-08-19T12:57:31.801Z,1007.89
2018-08-19T12:58:31.806Z,1007.87
2018-08-19T12:59:31.814Z,1007.80
2018-08-19T13:00:31.822Z,1007.92
2018-08-19T13:01:31.828Z,1007.90
2018-08-19T13:02:31.833Z,1007.91
2018-08-19T13:03:31.837Z,1007.87
2018-08-19T13:04:31.859Z,1007.86
2018-08-19T13:05:31.865Z,1007.84
2018-08-19T13:06:31.859Z,1007.88
2018-08-19T13:07:31.875Z,1007.84
2018-08-19T13:08:31.872Z,1007.84
2018-08-19T13:09:31.878Z,1007.81
2018-08-19T13:10:31.899Z,1007.82
2018-08-19T13:11:31.905Z,1007.74
2018-08-19T13:12:31.902Z,1007.77
2018-08-19T13:13:31.913Z,1007.79
2018-08-19T13:14:31.923Z,1007.74
2018-08-19T13:15:31.923Z,1007.71
2018-08-19T13:16:31.941Z,1007.74
2018-08-19T13:17:31.945Z,1007.75
2018-08-19T13:18:31.952Z,1007.72
2018-08-19T13:19:31.955Z,1007.82
2018-08-19T13:20:31.962Z,1007.71
2018-08-19T13:21:31.980Z,1007.69
2018-08-19T13:22:31.983Z,1007.70
2018-08-19T13:23:32.366Z,1007.68
2018-08-19T13:24:31.996Z,1007.65
2018-08-19T13:25:31.997Z,1007.63
2018-08-19T13:26:32.022Z,1007.64
2018-08-19T13:27:32.024Z,1007.62
2018-08-19T13:28:32.035Z,1007.64
2018-08-19T13:29:32.027Z,1007.62
2018-08-19T13:30:32.036Z,1007.61
2018-08-19T13:31:32.049Z,1007.62
2018-08-19T13:32:32.048Z,1007.62
2018-08-19T13:33:32.056Z,1007.60
2018-08-19T13:34:32.062Z,1007.64
2018-08-19T13:35:32.083Z,1007.60
2018-08-19T13:36:40.722Z,1007.60
2018-08-19T13:38:25.544Z,1007.60
2018-08-19T13:39:25.535Z,1007.53
2018-08-19T13:40:25.647Z,1007.52
2018-08-19T13:41:25.554Z,1007.52
2018-08-19T13:42:25.585Z,1007.51
2018-08-19T13:43:25.556Z,1007.53
2018-08-19T13:44:25.566Z,1007.54
2018-08-19T13:45:25.594Z,1007.50
2018-08-19T13:46:25.582Z,1007.47
2018-08-19T13:47:25.599Z,1007.45
2018-08-19T13:48:25.605Z,1007.38
2018-08-19T13:49:25.613Z,1007.37
2018-08-19T13:50:25.617Z,1007.43
2018-08-19T13:51:25.645Z,1007.43
2018-08-19T13:52:25.636Z,1007.39
2018-08-19T13:53:25.835Z,1007.35
2018-08-19T13:54:25.649Z,1007.34
2018-08-19T13:55:25.953Z,1007.35
2018-08-19T13:56:25.667Z,1007.29
2018-08-19T13:57:25.668Z,1007.33
2018-08-19T13:58:25.682Z,1007.35
2018-08-19T13:59:25.681Z,1007.30
2018-08-19T14:00:25.688Z,1007.23
2018-08-19T14:01:25.718Z,1007.28
2018-08-19T14:02:25.714Z,1007.28
2018-08-19T14:03:25.761Z,1007.24
2018-08-19T14:04:25.721Z,1007.28
2018-08-19T14:05:25.754Z,1007.20
2018-08-19T14:06:25.742Z,1007.24
2018-08-19T14:07:25.757Z,1007.20
2018-08-19T14:08:25.754Z,1007.18
2018-08-19T14:09:25.785Z,1007.21
2018-08-19T14:10:25.767Z,1007.22
2018-08-19T14:11:25.786Z,1007.23
2018-08-19T14:12:25.793Z,1007.22
2018-08-19T14:13:25.809Z,1007.13
2018-08-19T14:14:25.801Z,1007.20
2018-08-19T14:15:25.805Z,1007.12
2018-08-19T14:16:25.830Z,1007.16
2018-08-19T14:17:25.824Z,1007.11
2018-08-19T14:18:25.837Z,1007.14
2018-08-19T14:19:25.849Z,1007.11
2018-08-19T14:20:25.849Z,1007.12
2018-08-19T14:21:25.854Z,1007.17
2018-08-19T14:22:25.887Z,1007.13
2018-08-19T14:23:25.878Z,1007.17
2018-08-19T14:24:25.885Z,1007.13
2018-08-19T14:25:25.895Z,1007.12
2018-08-19T14:26:25.887Z,1007.10
2018-08-19T14:27:25.898Z,1007.07
2018-08-19T14:28:25.902Z,1007.08
2018-08-19T14:29:25.916Z,1007.06
2018-08-19T14:30:26.032Z,1007.08
2018-08-19T14:31:25.931Z,1007.06
2018-08-19T14:32:25.957Z,1007.06
2018-08-19T14:33:25.949Z,1007.01
2018-08-19T14:34:25.954Z,1007.03
2018-08-19T14:35:25.964Z,1007.09
2018-08-19T14:36:25.967Z,1007.07
2018-08-19T14:37:25.979Z,1007.08
2018-08-19T14:38:25.981Z,1007.07
2018-08-19T14:39:25.992Z,1007.05
2018-08-19T14:40:26.171Z,1007.02
2018-08-19T14:41:26.003Z,1007.02
2018-08-19T14:42:26.026Z,1006.98
2018-08-19T14:43:26.022Z,1006.95
2018-08-19T14:44:26.040Z,1006.94
2018-08-19T14:45:26.074Z,1006.92
2018-08-19T14:46:26.077Z,1006.97
2018-08-19T14:47:26.060Z,1006.92
2018-08-19T14:48:26.074Z,1006.86
2018-08-19T14:49:26.082Z,1006.82
2018-08-19T14:50:26.089Z,1006.79
2018-08-19T14:51:26.079Z,1006.82
2018-08-19T14:52:26.102Z,1006.80
2018-08-19T14:53:26.111Z,1006.79
2018-08-19T14:54:26.112Z,1006.83
2018-08-19T14:55:26.127Z,1006.81
2018-08-19T14:56:26.137Z,1006.80
2018-08-19T14:57:26.150Z,1006.74
2018-08-19T14:58:26.140Z,1006.78
2018-08-19T14:59:26.146Z,1006.77
2018-08-19T15:00:26.153Z,1006.76
2018-08-19T15:01:26.170Z,1006.74
2018-08-19T15:02:26.184Z,1006.72
2018-08-19T15:03:26.194Z,1006.74
2018-08-19T15:04:26.184Z,1006.72
2018-08-19T15:05:26.213Z,1006.73
2018-08-19T15:06:26.200Z,1006.74
2018-08-19T15:07:26.221Z,1006.71
2018-08-19T15:08:26.227Z,1006.73
2018-08-19T15:09:26.231Z,1006.71
2018-08-19T15:10:26.242Z,1006.70
2018-08-19T15:11:26.250Z,1006.63
2018-08-19T15:12:26.252Z,1006.64
2018-08-19T15:13:26.271Z,1006.67
2018-08-19T15:14:26.264Z,1006.68
2018-08-19T15:15:26.280Z,1006.67
2018-08-19T15:16:26.289Z,1006.66
2018-08-19T15:17:26.293Z,1006.61
2018-08-19T15:18:26.293Z,1006.63
2018-08-19T15:19:26.304Z,1006.65
2018-08-19T15:20:26.316Z,1006.60
2018-08-19T15:21:26.327Z,1006.60